sensor_id;sensor_type;location;lat;lon;timestamp;temperature;humidity
8888;DHT22;4480;52.370;9.748;2023-06-26T00:01:07;21.90;99.90
8888;DHT22;4480;52.370;9.748;2023-06-26T00:03:34;21.80;99.90
8888;DHT22;4480;52.370;9.748;2023-06-26T00:06:01;21.80;99.90
8888;DHT22;4480;52.370;9.748;2023-06-26T00:08:28;21.80;99.90
8888;DHT22;4480;52.370;9.748;2023-06-26T00:10:55;21.70;99.90
8888;DHT22;4480;52.370;9.748;2023-06-26T00:13:23;21.70;99.90
8888;DHT22;4480;52.370;9.748;2023-06-26T00:15:51;21.60;99.90
8888;DHT22;4480;52.370;9.748;2023-06-26T00:18:17;21.60;99.90
8888;DHT22;4480;52.370;9.748;2023-06-26T00:20:44;21.60;99.90
8888;DHT22;4480;52.370;9.748;2023-06-26T00:23:11;21.50;99.90
8888;DHT22;4480;52.370;9.748;2023-06-26T00:25:42;21.50;99.90
8888;DHT22;4480;52.370;9.748;2023-06-26T00:28:09;21.40;99.90
8888;DHT22;4480;52.370;9.748;2023-06-26T00:30:37;21.50;99.90
8888;DHT22;4480;52.370;9.748;2023-06-26T00:33:04;21.40;99.90
8888;DHT22;4480;52.370;9.748;2023-06-26T00:35:31;21.40;99.90
8888;DHT22;4480;52.370;9.748;2023-06-26T00:37:57;21.40;99.90
8888;DHT22;4480;52.370;9.748;2023-06-26T00:40:24;21.40;99.90
8888;DHT22;4480;52.370;9.748;2023-06-26T00:42:54;21.30;99.90
8888;DHT22;4480;52.370;9.748;2023-06-26T00:45:21;21.30;99.90
8888;DHT22;4480;52.370;9.748;2023-06-26T00:47:49;21.30;99.90
8888;DHT22;4480;52.370;9.748;2023-06-26T00:50:16;21.30;99.90
8888;DHT22;4480;52.370;9.748;2023-06-26T00:52:43;21.30;99.90
8888;DHT22;4480;52.370;9.748;2023-06-26T00:55:10;21.20;99.90
8888;DHT22;4480;52.370;9.748;2023-06-26T00:57:37;21.20;99.90
8888;DHT22;4480;52.370;9.748;2023-06-26T01:00:05;21.20;99.90
8888;DHT22;4480;52.370;9.748;2023-06-26T01:02:32;21.20;99.90
8888;DHT22;4480;52.370;9.748;2023-06-26T01:05:01;21.20;99.90
8888;DHT22;4480;52.370;9.748;2023-06-26T01:07:32;21.20;99.90
8888;DHT22;4480;52.370;9.748;2023-06-26T01:10:02;21.20;99.90
8888;DHT22;4480;52.370;9.748;2023-06-26T01:12:30;21.10;99.90
8888;DHT22;4480;52.370;9.748;2023-06-26T01:14:57;21.10;99.90
8888;DHT22;4480;52.370;9.748;2023-06-26T01:17:24;21.10;99.90
8888;DHT22;4480;52.370;9.748;2023-06-26T01:19:52;21.10;99.90
8888;DHT22;4480;52.370;9.748;2023-06-26T01:22:34;21.00;99.90
8888;DHT22;4480;52.370;9.748;2023-06-26T01:25:14;21.00;99.90
8888;DHT22;4480;52.370;9.748;2023-06-26T01:27:46;21.00;99.90
8888;DHT22;4480;52.370;9.748;2023-06-26T01:30:14;21.00;99.90
8888;DHT22;4480;52.370;9.748;2023-06-26T01:32:43;21.00;99.90
8888;DHT22;4480;52.370;9.748;2023-06-26T01:35:10;21.00;99.90
8888;DHT22;4480;52.370;9.748;2023-06-26T01:37:37;21.00;99.90
8888;DHT22;4480;52.370;9.748;2023-06-26T01:40:04;21.00;99.90
8888;DHT22;4480;52.370;9.748;2023-06-26T01:42:31;21.00;99.90
8888;DHT22;4480;52.370;9.748;2023-06-26T01:45:03;20.90;99.90
8888;DHT22;4480;52.370;9.748;2023-06-26T01:47:34;20.90;99.90
8888;DHT22;4480;52.370;9.748;2023-06-26T01:50:06;20.90;99.90
8888;DHT22;4480;52.370;9.748;2023-06-26T01:52:40;20.90;99.90
8888;DHT22;4480;52.370;9.748;2023-06-26T01:55:12;20.90;99.90
8888;DHT22;4480;52.370;9.748;2023-06-26T01:57:42;20.90;99.90
8888;DHT22;4480;52.370;9.748;2023-06-26T02:00:11;20.90;99.90
8888;DHT22;4480;52.370;9.748;2023-06-26T02:02:41;20.80;99.90
8888;DHT22;4480;52.370;9.748;2023-06-26T02:05:08;20.80;99.90
8888;DHT22;4480;52.370;9.748;2023-06-26T02:07:35;20.80;99.90
8888;DHT22;4480;52.370;9.748;2023-06-26T02:10:02;20.80;99.90
8888;DHT22;4480;52.370;9.748;2023-06-26T02:12:29;20.80;99.90
8888;DHT22;4480;52.370;9.748;2023-06-26T02:14:55;20.80;99.90
8888;DHT22;4480;52.370;9.748;2023-06-26T02:17:23;20.80;99.90
8888;DHT22;4480;52.370;9.748;2023-06-26T02:19:50;20.80;99.90
8888;DHT22;4480;52.370;9.748;2023-06-26T02:22:17;20.80;99.90
8888;DHT22;4480;52.370;9.748;2023-06-26T02:24:44;20.80;99.90
8888;DHT22;4480;52.370;9.748;2023-06-26T02:27:11;20.80;99.90
8888;DHT22;4480;52.370;9.748;2023-06-26T02:29:40;20.70;99.90
8888;DHT22;4480;52.370;9.748;2023-06-26T02:32:07;20.70;99.90
8888;DHT22;4480;52.370;9.748;2023-06-26T02:34:35;20.70;99.90
8888;DHT22;4480;52.370;9.748;2023-06-26T02:37:03;20.70;99.90
8888;DHT22;4480;52.370;9.748;2023-06-26T02:39:33;20.70;99.90
8888;DHT22;4480;52.370;9.748;2023-06-26T02:41:59;20.70;99.90
8888;DHT22;4480;52.370;9.748;2023-06-26T02:44:26;20.70;99.90
8888;DHT22;4480;52.370;9.748;2023-06-26T02:46:53;20.70;99.90
8888;DHT22;4480;52.370;9.748;2023-06-26T02:49:20;20.60;99.90
8888;DHT22;4480;52.370;9.748;2023-06-26T02:51:48;20.60;99.90
8888;DHT22;4480;52.370;9.748;2023-06-26T02:54:15;20.60;99.90
8888;DHT22;4480;52.370;9.748;2023-06-26T02:56:42;20.60;99.90
8888;DHT22;4480;52.370;9.748;2023-06-26T02:59:09;20.60;99.90
8888;DHT22;4480;52.370;9.748;2023-06-26T03:01:35;20.60;99.90
8888;DHT22;4480;52.370;9.748;2023-06-26T03:04:02;20.60;99.90
8888;DHT22;4480;52.370;9.748;2023-06-26T03:06:30;20.60;99.90
8888;DHT22;4480;52.370;9.748;2023-06-26T03:08:58;20.60;99.90
8888;DHT22;4480;52.370;9.748;2023-06-26T03:11:25;20.60;99.90
8888;DHT22;4480;52.370;9.748;2023-06-26T03:13:52;20.60;99.90
8888;DHT22;4480;52.370;9.748;2023-06-26T03:16:18;20.60;99.90
8888;DHT22;4480;52.370;9.748;2023-06-26T03:18:45;20.50;99.90
8888;DHT22;4480;52.370;9.748;2023-06-26T03:21:12;20.60;99.90
8888;DHT22;4480;52.370;9.748;2023-06-26T03:23:39;20.60;99.90
8888;DHT22;4480;52.370;9.748;2023-06-26T03:26:07;20.60;99.90
8888;DHT22;4480;52.370;9.748;2023-06-26T03:28:34;20.60;99.90
8888;DHT22;4480;52.370;9.748;2023-06-26T03:31:00;20.60;99.90
8888;DHT22;4480;52.370;9.748;2023-06-26T03:33:27;20.60;99.90
8888;DHT22;4480;52.370;9.748;2023-06-26T03:35:54;20.60;99.90
8888;DHT22;4480;52.370;9.748;2023-06-26T03:38:21;20.60;99.90
8888;DHT22;4480;52.370;9.748;2023-06-26T03:40:49;20.60;99.90
8888;DHT22;4480;52.370;9.748;2023-06-26T03:43:17;20.70;99.90
8888;DHT22;4480;52.370;9.748;2023-06-26T03:45:44;20.70;99.90
8888;DHT22;4480;52.370;9.748;2023-06-26T03:48:11;20.80;99.90
8888;DHT22;4480;52.370;9.748;2023-06-26T03:50:38;20.80;99.90
8888;DHT22;4480;52.370;9.748;2023-06-26T03:53:05;20.90;99.90
8888;DHT22;4480;52.370;9.748;2023-06-26T03:55:32;21.10;99.90
8888;DHT22;4480;52.370;9.748;2023-06-26T03:57:59;21.50;99.90
8888;DHT22;4480;52.370;9.748;2023-06-26T04:00:27;22.00;98.50
8888;DHT22;4480;52.370;9.748;2023-06-26T04:02:54;22.50;96.60
8888;DHT22;4480;52.370;9.748;2023-06-26T04:05:21;23.10;94.60
8888;DHT22;4480;52.370;9.748;2023-06-26T04:07:49;23.50;92.40
8888;DHT22;4480;52.370;9.748;2023-06-26T04:11:51;24.10;87.60
8888;DHT22;4480;52.370;9.748;2023-06-26T04:14:18;24.50;84.60
8888;DHT22;4480;52.370;9.748;2023-06-26T04:16:45;24.70;81.00
8888;DHT22;4480;52.370;9.748;2023-06-26T04:19:12;25.00;78.30
8888;DHT22;4480;52.370;9.748;2023-06-26T04:21:39;25.20;75.50
8888;DHT22;4480;52.370;9.748;2023-06-26T04:24:06;25.40;73.30
8888;DHT22;4480;52.370;9.748;2023-06-26T04:26:33;25.70;71.40
8888;DHT22;4480;52.370;9.748;2023-06-26T04:29:01;25.90;69.70
8888;DHT22;4480;52.370;9.748;2023-06-26T04:31:28;26.20;67.80
8888;DHT22;4480;52.370;9.748;2023-06-26T04:33:55;26.40;66.10
8888;DHT22;4480;52.370;9.748;2023-06-26T04:36:23;26.60;64.50
8888;DHT22;4480;52.370;9.748;2023-06-26T04:38:53;26.70;63.10
8888;DHT22;4480;52.370;9.748;2023-06-26T04:41:21;26.90;62.10
8888;DHT22;4480;52.370;9.748;2023-06-26T04:43:48;27.00;61.10
8888;DHT22;4480;52.370;9.748;2023-06-26T04:46:16;27.10;60.20
8888;DHT22;4480;52.370;9.748;2023-06-26T04:48:43;27.10;59.70
8888;DHT22;4480;52.370;9.748;2023-06-26T04:51:10;27.10;59.50
8888;DHT22;4480;52.370;9.748;2023-06-26T04:53:37;27.00;59.40
8888;DHT22;4480;52.370;9.748;2023-06-26T04:56:04;27.10;59.20
8888;DHT22;4480;52.370;9.748;2023-06-26T04:58:31;27.30;58.70
8888;DHT22;4480;52.370;9.748;2023-06-26T05:00:57;27.40;58.40
8888;DHT22;4480;52.370;9.748;2023-06-26T05:03:26;27.50;58.10
8888;DHT22;4480;52.370;9.748;2023-06-26T05:05:52;27.60;57.70
8888;DHT22;4480;52.370;9.748;2023-06-26T05:08:21;27.60;57.50
8888;DHT22;4480;52.370;9.748;2023-06-26T05:10:49;27.70;57.30
8888;DHT22;4480;52.370;9.748;2023-06-26T05:13:16;27.80;57.10
8888;DHT22;4480;52.370;9.748;2023-06-26T05:15:44;27.80;56.90
8888;DHT22;4480;52.370;9.748;2023-06-26T05:18:12;27.90;56.70
8888;DHT22;4480;52.370;9.748;2023-06-26T05:20:41;28.00;56.40
8888;DHT22;4480;52.370;9.748;2023-06-26T05:23:08;28.10;56.20
8888;DHT22;4480;52.370;9.748;2023-06-26T05:25:37;28.20;56.00
8888;DHT22;4480;52.370;9.748;2023-06-26T05:28:04;28.40;55.70
8888;DHT22;4480;52.370;9.748;2023-06-26T05:30:32;28.40;55.40
8888;DHT22;4480;52.370;9.748;2023-06-26T05:33:01;28.50;55.10
8888;DHT22;4480;52.370;9.748;2023-06-26T05:35:29;28.70;54.70
8888;DHT22;4480;52.370;9.748;2023-06-26T05:37:58;28.90;54.20
8888;DHT22;4480;52.370;9.748;2023-06-26T05:40:25;29.10;53.60
8888;DHT22;4480;52.370;9.748;2023-06-26T05:42:53;29.30;53.10
8888;DHT22;4480;52.370;9.748;2023-06-26T05:45:19;29.50;52.60
8888;DHT22;4480;52.370;9.748;2023-06-26T05:47:46;29.50;52.20
8888;DHT22;4480;52.370;9.748;2023-06-26T05:50:16;29.60;52.10
8888;DHT22;4480;52.370;9.748;2023-06-26T05:52:44;29.60;51.80
8888;DHT22;4480;52.370;9.748;2023-06-26T05:55:13;29.50;52.30
8888;DHT22;4480;52.370;9.748;2023-06-26T05:57:41;29.40;51.80
8888;DHT22;4480;52.370;9.748;2023-06-26T06:00:08;29.30;51.90
8888;DHT22;4480;52.370;9.748;2023-06-26T06:02:36;29.20;52.00
8888;DHT22;4480;52.370;9.748;2023-06-26T06:05:03;29.20;51.90
8888;DHT22;4480;52.370;9.748;2023-06-26T06:07:31;29.10;51.90
8888;DHT22;4480;52.370;9.748;2023-06-26T06:09:59;28.80;52.30
8888;DHT22;4480;52.370;9.748;2023-06-26T06:12:27;28.40;52.90
8888;DHT22;4480;52.370;9.748;2023-06-26T06:14:55;28.20;53.60
8888;DHT22;4480;52.370;9.748;2023-06-26T06:17:22;27.90;54.00
8888;DHT22;4480;52.370;9.748;2023-06-26T06:19:49;27.60;54.40
8888;DHT22;4480;52.370;9.748;2023-06-26T06:22:15;27.50;55.00
8888;DHT22;4480;52.370;9.748;2023-06-26T06:24:43;27.50;55.30
8888;DHT22;4480;52.370;9.748;2023-06-26T06:27:10;27.50;55.30
8888;DHT22;4480;52.370;9.748;2023-06-26T06:29:38;27.60;55.40
8888;DHT22;4480;52.370;9.748;2023-06-26T06:32:06;27.70;55.30
8888;DHT22;4480;52.370;9.748;2023-06-26T06:34:33;27.70;55.20
8888;DHT22;4480;52.370;9.748;2023-06-26T06:37:01;27.80;55.10
8888;DHT22;4480;52.370;9.748;2023-06-26T06:39:28;27.90;55.00
8888;DHT22;4480;52.370;9.748;2023-06-26T06:41:55;28.00;54.90
8888;DHT22;4480;52.370;9.748;2023-06-26T06:44:22;27.90;55.00
8888;DHT22;4480;52.370;9.748;2023-06-26T06:46:50;27.60;55.30
8888;DHT22;4480;52.370;9.748;2023-06-26T06:49:18;27.40;55.80
8888;DHT22;4480;52.370;9.748;2023-06-26T06:51:45;27.00;56.50
8888;DHT22;4480;52.370;9.748;2023-06-26T06:54:12;26.80;57.30
8888;DHT22;4480;52.370;9.748;2023-06-26T06:56:39;26.60;57.90
8888;DHT22;4480;52.370;9.748;2023-06-26T06:59:05;26.60;58.40
8888;DHT22;4480;52.370;9.748;2023-06-26T07:01:32;26.80;58.30
8888;DHT22;4480;52.370;9.748;2023-06-26T07:04:00;27.00;58.20
8888;DHT22;4480;52.370;9.748;2023-06-26T07:06:29;27.00;58.10
8888;DHT22;4480;52.370;9.748;2023-06-26T07:08:56;27.10;58.20
8888;DHT22;4480;52.370;9.748;2023-06-26T07:11:23;27.20;58.20
8888;DHT22;4480;52.370;9.748;2023-06-26T07:13:50;27.40;57.90
8888;DHT22;4480;52.370;9.748;2023-06-26T07:16:16;27.60;57.30
8888;DHT22;4480;52.370;9.748;2023-06-26T07:18:43;27.80;56.90
8888;DHT22;4480;52.370;9.748;2023-06-26T07:21:12;27.80;56.90
8888;DHT22;4480;52.370;9.748;2023-06-26T07:23:38;27.90;56.80
8888;DHT22;4480;52.370;9.748;2023-06-26T07:26:05;27.90;56.60
8888;DHT22;4480;52.370;9.748;2023-06-26T07:28:32;28.00;56.40
8888;DHT22;4480;52.370;9.748;2023-06-26T07:30:59;28.10;56.00
8888;DHT22;4480;52.370;9.748;2023-06-26T07:33:25;28.30;55.50
8888;DHT22;4480;52.370;9.748;2023-06-26T07:35:52;28.40;54.50
8888;DHT22;4480;52.370;9.748;2023-06-26T07:38:20;28.50;53.70
8888;DHT22;4480;52.370;9.748;2023-06-26T07:40:47;28.50;53.10
8888;DHT22;4480;52.370;9.748;2023-06-26T07:43:14;28.50;52.70
8888;DHT22;4480;52.370;9.748;2023-06-26T07:45:41;28.50;52.30
8888;DHT22;4480;52.370;9.748;2023-06-26T07:48:08;28.50;52.10
8888;DHT22;4480;52.370;9.748;2023-06-26T07:50:35;28.60;52.00
8888;DHT22;4480;52.370;9.748;2023-06-26T07:53:02;28.60;51.90
8888;DHT22;4480;52.370;9.748;2023-06-26T07:55:32;28.60;51.70
8888;DHT22;4480;52.370;9.748;2023-06-26T07:57:59;28.80;51.70
8888;DHT22;4480;52.370;9.748;2023-06-26T08:00:26;29.00;51.30
8888;DHT22;4480;52.370;9.748;2023-06-26T08:02:53;29.00;51.00
8888;DHT22;4480;52.370;9.748;2023-06-26T08:05:20;29.10;51.00
8888;DHT22;4480;52.370;9.748;2023-06-26T08:07:47;29.10;51.00
8888;DHT22;4480;52.370;9.748;2023-06-26T08:10:14;29.10;51.00
8888;DHT22;4480;52.370;9.748;2023-06-26T08:12:42;29.20;51.10
8888;DHT22;4480;52.370;9.748;2023-06-26T08:15:10;29.30;51.10
8888;DHT22;4480;52.370;9.748;2023-06-26T08:17:38;29.40;50.80
8888;DHT22;4480;52.370;9.748;2023-06-26T08:20:05;29.60;50.60
8888;DHT22;4480;52.370;9.748;2023-06-26T08:22:33;29.70;50.40
8888;DHT22;4480;52.370;9.748;2023-06-26T08:25:02;30.00;50.10
8888;DHT22;4480;52.370;9.748;2023-06-26T08:27:29;30.10;49.80
8888;DHT22;4480;52.370;9.748;2023-06-26T08:29:58;30.20;49.70
8888;DHT22;4480;52.370;9.748;2023-06-26T08:32:24;30.30;49.70
8888;DHT22;4480;52.370;9.748;2023-06-26T08:34:51;30.40;49.60
8888;DHT22;4480;52.370;9.748;2023-06-26T08:37:18;30.40;49.50
8888;DHT22;4480;52.370;9.748;2023-06-26T08:39:45;30.50;49.50
8888;DHT22;4480;52.370;9.748;2023-06-26T08:42:12;30.60;49.40
8888;DHT22;4480;52.370;9.748;2023-06-26T08:44:38;30.70;49.20
8888;DHT22;4480;52.370;9.748;2023-06-26T08:47:07;30.70;48.70
8888;DHT22;4480;52.370;9.748;2023-06-26T08:49:43;30.70;48.50
8888;DHT22;4480;52.370;9.748;2023-06-26T08:52:17;30.80;48.20
8888;DHT22;4480;52.370;9.748;2023-06-26T08:54:46;30.70;47.90
8888;DHT22;4480;52.370;9.748;2023-06-26T08:57:16;30.80;47.60
8888;DHT22;4480;52.370;9.748;2023-06-26T08:59:45;30.70;48.20
8888;DHT22;4480;52.370;9.748;2023-06-26T09:02:14;30.60;47.70
8888;DHT22;4480;52.370;9.748;2023-06-26T09:04:41;30.40;48.20
8888;DHT22;4480;52.370;9.748;2023-06-26T09:07:08;30.10;48.50
8888;DHT22;4480;52.370;9.748;2023-06-26T09:09:35;30.00;48.80
8888;DHT22;4480;52.370;9.748;2023-06-26T09:12:01;29.80;49.20
8888;DHT22;4480;52.370;9.748;2023-06-26T09:14:29;29.80;49.60
8888;DHT22;4480;52.370;9.748;2023-06-26T09:16:56;30.00;49.60
8888;DHT22;4480;52.370;9.748;2023-06-26T09:19:24;30.00;49.60
8888;DHT22;4480;52.370;9.748;2023-06-26T09:21:51;30.00;49.70
8888;DHT22;4480;52.370;9.748;2023-06-26T09:24:18;29.80;49.30
8888;DHT22;4480;52.370;9.748;2023-06-26T09:26:45;29.60;49.30
8888;DHT22;4480;52.370;9.748;2023-06-26T09:29:12;29.40;49.60
8888;DHT22;4480;52.370;9.748;2023-06-26T09:31:40;29.30;49.20
8888;DHT22;4480;52.370;9.748;2023-06-26T09:34:07;29.10;49.20
8888;DHT22;4480;52.370;9.748;2023-06-26T09:36:35;28.90;49.80
8888;DHT22;4480;52.370;9.748;2023-06-26T09:39:03;28.70;50.40
8888;DHT22;4480;52.370;9.748;2023-06-26T09:41:34;28.70;51.00
8888;DHT22;4480;52.370;9.748;2023-06-26T09:44:02;28.70;51.30
8888;DHT22;4480;52.370;9.748;2023-06-26T09:46:30;28.50;51.90
8888;DHT22;4480;52.370;9.748;2023-06-26T09:49:03;28.60;52.40
8888;DHT22;4480;52.370;9.748;2023-06-26T09:51:31;28.70;52.30
8888;DHT22;4480;52.370;9.748;2023-06-26T09:53:59;28.70;53.00
8888;DHT22;4480;52.370;9.748;2023-06-26T09:56:27;28.40;52.90
8888;DHT22;4480;52.370;9.748;2023-06-26T09:58:56;28.20;53.50
8888;DHT22;4480;52.370;9.748;2023-06-26T10:01:23;28.00;53.90
8888;DHT22;4480;52.370;9.748;2023-06-26T10:03:51;27.80;54.20
8888;DHT22;4480;52.370;9.748;2023-06-26T10:06:19;27.60;54.70
8888;DHT22;4480;52.370;9.748;2023-06-26T10:08:49;27.50;55.30
8888;DHT22;4480;52.370;9.748;2023-06-26T10:11:21;27.40;55.80
8888;DHT22;4480;52.370;9.748;2023-06-26T10:13:50;27.30;56.30
8888;DHT22;4480;52.370;9.748;2023-06-26T10:16:23;27.20;57.00
8888;DHT22;4480;52.370;9.748;2023-06-26T10:18:53;27.10;57.80
8888;DHT22;4480;52.370;9.748;2023-06-26T10:21:24;27.00;58.70
8888;DHT22;4480;52.370;9.748;2023-06-26T10:23:53;26.70;59.70
8888;DHT22;4480;52.370;9.748;2023-06-26T10:26:24;26.50;60.80
8888;DHT22;4480;52.370;9.748;2023-06-26T10:28:52;26.20;61.80
8888;DHT22;4480;52.370;9.748;2023-06-26T10:31:22;25.90;62.20
8888;DHT22;4480;52.370;9.748;2023-06-26T10:33:50;25.70;62.70
8888;DHT22;4480;52.370;9.748;2023-06-26T10:36:19;25.60;62.80
8888;DHT22;4480;52.370;9.748;2023-06-26T10:38:51;25.10;65.40
8888;DHT22;4480;52.370;9.748;2023-06-26T10:41:20;24.10;71.80
8888;DHT22;4480;52.370;9.748;2023-06-26T10:44:06;23.10;86.10
8888;DHT22;4480;52.370;9.748;2023-06-26T10:46:33;22.20;97.90
8888;DHT22;4480;52.370;9.748;2023-06-26T10:49:01;21.80;99.90
8888;DHT22;4480;52.370;9.748;2023-06-26T10:51:28;21.80;99.90
8888;DHT22;4480;52.370;9.748;2023-06-26T10:53:56;21.90;99.90
8888;DHT22;4480;52.370;9.748;2023-06-26T10:56:41;22.00;99.90
8888;DHT22;4480;52.370;9.748;2023-06-26T10:59:14;22.10;99.90
8888;DHT22;4480;52.370;9.748;2023-06-26T11:01:42;22.40;99.90
8888;DHT22;4480;52.370;9.748;2023-06-26T11:04:09;22.60;99.90
8888;DHT22;4480;52.370;9.748;2023-06-26T11:06:38;22.70;99.90
8888;DHT22;4480;52.370;9.748;2023-06-26T11:09:10;22.80;99.90
8888;DHT22;4480;52.370;9.748;2023-06-26T11:11:57;22.90;99.90
8888;DHT22;4480;52.370;9.748;2023-06-26T11:14:30;23.00;99.90
8888;DHT22;4480;52.370;9.748;2023-06-26T11:16:57;23.10;99.90
8888;DHT22;4480;52.370;9.748;2023-06-26T11:19:26;23.30;99.90
8888;DHT22;4480;52.370;9.748;2023-06-26T11:22:02;23.40;99.90
8888;DHT22;4480;52.370;9.748;2023-06-26T11:24:29;23.50;99.90
8888;DHT22;4480;52.370;9.748;2023-06-26T11:27:00;23.70;99.90
8888;DHT22;4480;52.370;9.748;2023-06-26T11:29:30;23.80;98.40
8888;DHT22;4480;52.370;9.748;2023-06-26T11:32:02;24.00;97.20
8888;DHT22;4480;52.370;9.748;2023-06-26T11:34:31;24.10;96.50
8888;DHT22;4480;52.370;9.748;2023-06-26T11:36:58;24.20;95.90
8888;DHT22;4480;52.370;9.748;2023-06-26T11:39:30;24.30;95.40
8888;DHT22;4480;52.370;9.748;2023-06-26T11:41:58;24.40;94.50
8888;DHT22;4480;52.370;9.748;2023-06-26T11:44:30;24.50;93.20
8888;DHT22;4480;52.370;9.748;2023-06-26T11:46:57;24.70;91.40
8888;DHT22;4480;52.370;9.748;2023-06-26T11:49:24;25.00;89.60
8888;DHT22;4480;52.370;9.748;2023-06-26T11:51:52;25.40;83.30
8888;DHT22;4480;52.370;9.748;2023-06-26T11:54:25;25.70;78.70
8888;DHT22;4480;52.370;9.748;2023-06-26T11:56:56;25.70;76.10
8888;DHT22;4480;52.370;9.748;2023-06-26T11:59:23;25.70;75.10
8888;DHT22;4480;52.370;9.748;2023-06-26T12:01:52;25.70;73.80
8888;DHT22;4480;52.370;9.748;2023-06-26T12:04:20;25.60;71.20
8888;DHT22;4480;52.370;9.748;2023-06-26T12:06:48;25.50;71.00
8888;DHT22;4480;52.370;9.748;2023-06-26T12:09:17;25.40;67.70
8888;DHT22;4480;52.370;9.748;2023-06-26T12:11:46;25.40;66.60
8888;DHT22;4480;52.370;9.748;2023-06-26T12:14:14;25.40;64.20
8888;DHT22;4480;52.370;9.748;2023-06-26T12:16:42;25.50;61.90
8888;DHT22;4480;52.370;9.748;2023-06-26T12:19:10;25.60;59.90
8888;DHT22;4480;52.370;9.748;2023-06-26T12:21:47;26.00;59.00
8888;DHT22;4480;52.370;9.748;2023-06-26T12:24:19;26.40;57.30
8888;DHT22;4480;52.370;9.748;2023-06-26T12:26:47;26.60;56.50
8888;DHT22;4480;52.370;9.748;2023-06-26T12:29:15;26.60;56.40
8888;DHT22;4480;52.370;9.748;2023-06-26T12:31:43;26.60;56.40
8888;DHT22;4480;52.370;9.748;2023-06-26T12:34:13;26.80;55.70
8888;DHT22;4480;52.370;9.748;2023-06-26T12:36:43;27.10;54.80
8888;DHT22;4480;52.370;9.748;2023-06-26T12:39:11;27.40;54.20
8888;DHT22;4480;52.370;9.748;2023-06-26T12:41:45;27.70;53.50
8888;DHT22;4480;52.370;9.748;2023-06-26T12:44:23;27.90;53.30
8888;DHT22;4480;52.370;9.748;2023-06-26T12:46:57;27.80;52.70
8888;DHT22;4480;52.370;9.748;2023-06-26T12:49:31;27.50;52.60
8888;DHT22;4480;52.370;9.748;2023-06-26T12:51:59;27.30;52.60
8888;DHT22;4480;52.370;9.748;2023-06-26T12:54:26;27.30;52.50
8888;DHT22;4480;52.370;9.748;2023-06-26T12:56:53;27.40;51.00
8888;DHT22;4480;52.370;9.748;2023-06-26T12:59:20;27.50;49.60
8888;DHT22;4480;52.370;9.748;2023-06-26T13:01:47;27.60;48.70
8888;DHT22;4480;52.370;9.748;2023-06-26T13:04:14;27.70;48.20
8888;DHT22;4480;52.370;9.748;2023-06-26T13:06:42;27.70;48.50
8888;DHT22;4480;52.370;9.748;2023-06-26T13:09:09;27.80;48.50
8888;DHT22;4480;52.370;9.748;2023-06-26T13:11:37;27.90;48.20
8888;DHT22;4480;52.370;9.748;2023-06-26T13:14:04;27.80;47.90
8888;DHT22;4480;52.370;9.748;2023-06-26T13:16:31;27.60;47.80
8888;DHT22;4480;52.370;9.748;2023-06-26T13:18:58;27.50;47.80
8888;DHT22;4480;52.370;9.748;2023-06-26T13:21:25;27.50;48.00
8888;DHT22;4480;52.370;9.748;2023-06-26T13:23:54;27.40;48.20
8888;DHT22;4480;52.370;9.748;2023-06-26T13:26:21;27.40;48.60
8888;DHT22;4480;52.370;9.748;2023-06-26T13:28:48;27.60;47.90
8888;DHT22;4480;52.370;9.748;2023-06-26T13:31:15;27.60;47.60
8888;DHT22;4480;52.370;9.748;2023-06-26T13:33:42;27.60;47.50
8888;DHT22;4480;52.370;9.748;2023-06-26T13:36:10;27.60;46.90
8888;DHT22;4480;52.370;9.748;2023-06-26T13:38:37;27.60;45.60
8888;DHT22;4480;52.370;9.748;2023-06-26T13:41:05;27.60;44.90
8888;DHT22;4480;52.370;9.748;2023-06-26T13:43:32;27.60;43.50
8888;DHT22;4480;52.370;9.748;2023-06-26T13:45:59;27.50;42.60
8888;DHT22;4480;52.370;9.748;2023-06-26T13:48:26;27.40;42.70
8888;DHT22;4480;52.370;9.748;2023-06-26T13:50:53;27.50;43.10
8888;DHT22;4480;52.370;9.748;2023-06-26T13:53:20;27.60;43.50
8888;DHT22;4480;52.370;9.748;2023-06-26T13:55:47;27.60;44.10
8888;DHT22;4480;52.370;9.748;2023-06-26T13:58:15;27.60;45.00
8888;DHT22;4480;52.370;9.748;2023-06-26T14:00:42;27.40;45.20
8888;DHT22;4480;52.370;9.748;2023-06-26T14:03:10;27.30;45.40
8888;DHT22;4480;52.370;9.748;2023-06-26T14:05:37;27.40;45.30
8888;DHT22;4480;52.370;9.748;2023-06-26T14:08:06;27.40;44.20
8888;DHT22;4480;52.370;9.748;2023-06-26T14:10:33;27.30;43.60
8888;DHT22;4480;52.370;9.748;2023-06-26T14:13:00;27.20;43.30
8888;DHT22;4480;52.370;9.748;2023-06-26T14:15:30;27.30;43.00
8888;DHT22;4480;52.370;9.748;2023-06-26T14:17:56;27.20;42.40
8888;DHT22;4480;52.370;9.748;2023-06-26T14:20:24;27.00;42.30
8888;DHT22;4480;52.370;9.748;2023-06-26T14:22:51;26.90;42.70
8888;DHT22;4480;52.370;9.748;2023-06-26T14:25:18;26.90;42.70
8888;DHT22;4480;52.370;9.748;2023-06-26T14:27:44;27.10;42.40
8888;DHT22;4480;52.370;9.748;2023-06-26T14:30:12;27.30;41.90
8888;DHT22;4480;52.370;9.748;2023-06-26T14:32:40;27.30;41.70
8888;DHT22;4480;52.370;9.748;2023-06-26T14:35:07;27.20;41.90
8888;DHT22;4480;52.370;9.748;2023-06-26T14:37:36;27.20;42.40
8888;DHT22;4480;52.370;9.748;2023-06-26T14:40:06;27.10;43.00
8888;DHT22;4480;52.370;9.748;2023-06-26T14:42:32;27.10;43.70
8888;DHT22;4480;52.370;9.748;2023-06-26T14:44:59;27.00;44.40
8888;DHT22;4480;52.370;9.748;2023-06-26T14:47:26;26.90;44.80
8888;DHT22;4480;52.370;9.748;2023-06-26T14:49:54;26.80;45.00
8888;DHT22;4480;52.370;9.748;2023-06-26T14:52:21;26.70;44.70
8888;DHT22;4480;52.370;9.748;2023-06-26T14:54:48;26.70;44.40
8888;DHT22;4480;52.370;9.748;2023-06-26T14:57:14;26.70;44.10
8888;DHT22;4480;52.370;9.748;2023-06-26T14:59:42;26.60;43.80
8888;DHT22;4480;52.370;9.748;2023-06-26T15:02:09;26.40;44.00
8888;DHT22;4480;52.370;9.748;2023-06-26T15:04:35;26.20;44.80
8888;DHT22;4480;52.370;9.748;2023-06-26T15:07:04;26.10;45.80
8888;DHT22;4480;52.370;9.748;2023-06-26T15:09:31;26.20;46.60
8888;DHT22;4480;52.370;9.748;2023-06-26T15:11:58;26.10;46.90
8888;DHT22;4480;52.370;9.748;2023-06-26T15:14:25;25.90;47.40
8888;DHT22;4480;52.370;9.748;2023-06-26T15:16:52;25.60;48.30
8888;DHT22;4480;52.370;9.748;2023-06-26T15:19:18;25.40;49.00
8888;DHT22;4480;52.370;9.748;2023-06-26T15:21:45;25.20;49.40
8888;DHT22;4480;52.370;9.748;2023-06-26T15:24:13;25.10;49.50
8888;DHT22;4480;52.370;9.748;2023-06-26T15:26:40;25.10;49.50
8888;DHT22;4480;52.370;9.748;2023-06-26T15:29:07;25.10;49.40
8888;DHT22;4480;52.370;9.748;2023-06-26T15:31:34;25.20;48.50
8888;DHT22;4480;52.370;9.748;2023-06-26T15:34:01;25.10;47.80
8888;DHT22;4480;52.370;9.748;2023-06-26T15:36:28;25.20;47.50
8888;DHT22;4480;52.370;9.748;2023-06-26T15:38:55;25.40;46.80
8888;DHT22;4480;52.370;9.748;2023-06-26T15:41:23;25.50;45.80
8888;DHT22;4480;52.370;9.748;2023-06-26T15:43:50;25.60;46.00
8888;DHT22;4480;52.370;9.748;2023-06-26T15:46:17;25.60;45.90
8888;DHT22;4480;52.370;9.748;2023-06-26T15:48:43;25.60;45.90
8888;DHT22;4480;52.370;9.748;2023-06-26T15:51:13;25.40;46.10
8888;DHT22;4480;52.370;9.748;2023-06-26T15:53:40;25.30;46.50
8888;DHT22;4480;52.370;9.748;2023-06-26T15:56:09;25.10;46.70
8888;DHT22;4480;52.370;9.748;2023-06-26T15:58:38;25.00;46.90
8888;DHT22;4480;52.370;9.748;2023-06-26T16:01:07;24.90;47.20
8888;DHT22;4480;52.370;9.748;2023-06-26T16:03:34;24.90;47.00
8888;DHT22;4480;52.370;9.748;2023-06-26T16:06:01;25.10;46.10
8888;DHT22;4480;52.370;9.748;2023-06-26T16:08:28;25.10;45.70